sensor_id;sensor_type;location;lat;lon;timestamp;temperature;humidity
18412;DHT22;27097;51.738;19.472;2023-07-08T00:02:13;25.60;48.40
18412;DHT22;27097;51.738;19.472;2023-07-08T00:04:40;25.60;48.50
18412;DHT22;27097;51.738;19.472;2023-07-08T00:07:11;25.60;48.60
18412;DHT22;27097;51.738;19.472;2023-07-08T00:09:39;25.60;48.60
18412;DHT22;27097;51.738;19.472;2023-07-08T00:12:10;25.60;48.70
18412;DHT22;27097;51.738;19.472;2023-07-08T00:14:37;25.60;48.70
18412;DHT22;27097;51.738;19.472;2023-07-08T00:17:10;25.60;48.90
18412;DHT22;27097;51.738;19.472;2023-07-08T00:19:38;25.50;49.00
18412;DHT22;27097;51.738;19.472;2023-07-08T00:22:10;25.50;49.00
18412;DHT22;27097;51.738;19.472;2023-07-08T00:24:37;25.50;49.10
18412;DHT22;27097;51.738;19.472;2023-07-08T00:27:04;25.50;49.10
18412;DHT22;27097;51.738;19.472;2023-07-08T00:29:33;25.50;49.20
18412;DHT22;27097;51.738;19.472;2023-07-08T00:32:00;25.50;49.80
18412;DHT22;27097;51.738;19.472;2023-07-08T00:34:28;25.40;49.10
18412;DHT22;27097;51.738;19.472;2023-07-08T00:36:55;25.40;49.00
18412;DHT22;27097;51.738;19.472;2023-07-08T00:39:21;25.40;49.10
18412;DHT22;27097;51.738;19.472;2023-07-08T00:41:50;25.40;49.00
18412;DHT22;27097;51.738;19.472;2023-07-08T00:44:18;25.40;49.20
18412;DHT22;27097;51.738;19.472;2023-07-08T00:46:50;25.40;49.20
18412;DHT22;27097;51.738;19.472;2023-07-08T00:49:31;25.30;49.10
18412;DHT22;27097;51.738;19.472;2023-07-08T00:52:17;25.30;48.90
18412;DHT22;27097;51.738;19.472;2023-07-08T00:54:45;25.30;50.00
18412;DHT22;27097;51.738;19.472;2023-07-08T00:57:12;25.30;49.70
18412;DHT22;27097;51.738;19.472;2023-07-08T00:59:42;25.30;49.80
18412;DHT22;27097;51.738;19.472;2023-07-08T01:02:11;25.30;49.70
18412;DHT22;27097;51.738;19.472;2023-07-08T01:04:48;25.30;49.70
18412;DHT22;27097;51.738;19.472;2023-07-08T01:07:17;25.30;49.70
18412;DHT22;27097;51.738;19.472;2023-07-08T01:09:48;25.30;49.80
18412;DHT22;27097;51.738;19.472;2023-07-08T01:12:19;25.30;50.00
18412;DHT22;27097;51.738;19.472;2023-07-08T01:14:48;25.30;51.00
18412;DHT22;27097;51.738;19.472;2023-07-08T01:17:15;25.30;51.60
18412;DHT22;27097;51.738;19.472;2023-07-08T01:19:44;25.30;50.90
18412;DHT22;27097;51.738;19.472;2023-07-08T01:22:13;25.30;51.20
18412;DHT22;27097;51.738;19.472;2023-07-08T01:24:42;25.30;51.20
18412;DHT22;27097;51.738;19.472;2023-07-08T01:27:12;25.30;51.20
18412;DHT22;27097;51.738;19.472;2023-07-08T01:29:40;25.30;51.30
18412;DHT22;27097;51.738;19.472;2023-07-08T01:32:11;25.30;51.30
18412;DHT22;27097;51.738;19.472;2023-07-08T01:34:45;25.30;51.20
18412;DHT22;27097;51.738;19.472;2023-07-08T01:37:29;25.20;51.10
18412;DHT22;27097;51.738;19.472;2023-07-08T01:39:58;25.30;51.20
18412;DHT22;27097;51.738;19.472;2023-07-08T01:42:39;25.20;51.10
18412;DHT22;27097;51.738;19.472;2023-07-08T01:45:10;25.20;51.10
18412;DHT22;27097;51.738;19.472;2023-07-08T01:47:37;25.20;51.10
18412;DHT22;27097;51.738;19.472;2023-07-08T01:50:05;25.20;51.00
18412;DHT22;27097;51.738;19.472;2023-07-08T01:52:35;25.20;51.00
18412;DHT22;27097;51.738;19.472;2023-07-08T01:55:02;25.20;50.90
18412;DHT22;27097;51.738;19.472;2023-07-08T01:57:29;25.20;50.90
18412;DHT22;27097;51.738;19.472;2023-07-08T01:59:56;25.20;51.10
18412;DHT22;27097;51.738;19.472;2023-07-08T02:02:23;25.20;51.00
18412;DHT22;27097;51.738;19.472;2023-07-08T02:04:50;25.20;51.00
18412;DHT22;27097;51.738;19.472;2023-07-08T02:07:16;25.20;50.90
18412;DHT22;27097;51.738;19.472;2023-07-08T02:09:45;25.10;51.00
18412;DHT22;27097;51.738;19.472;2023-07-08T02:12:11;25.10;51.00
18412;DHT22;27097;51.738;19.472;2023-07-08T02:14:38;25.10;50.90
18412;DHT22;27097;51.738;19.472;2023-07-08T02:17:05;25.10;50.90
18412;DHT22;27097;51.738;19.472;2023-07-08T02:19:32;25.10;51.00
18412;DHT22;27097;51.738;19.472;2023-07-08T02:21:59;25.10;50.90
18412;DHT22;27097;51.738;19.472;2023-07-08T02:24:26;25.10;50.80
18412;DHT22;27097;51.738;19.472;2023-07-08T02:26:54;25.10;50.90
18412;DHT22;27097;51.738;19.472;2023-07-08T02:29:21;25.10;50.90
18412;DHT22;27097;51.738;19.472;2023-07-08T02:31:47;25.10;50.80
18412;DHT22;27097;51.738;19.472;2023-07-08T02:34:14;25.10;50.70
18412;DHT22;27097;51.738;19.472;2023-07-08T02:36:41;25.10;50.70
18412;DHT22;27097;51.738;19.472;2023-07-08T02:39:09;25.10;50.80
18412;DHT22;27097;51.738;19.472;2023-07-08T02:41:37;25.10;50.80
18412;DHT22;27097;51.738;19.472;2023-07-08T02:44:05;25.10;50.70
18412;DHT22;27097;51.738;19.472;2023-07-08T02:46:32;25.10;50.70
18412;DHT22;27097;51.738;19.472;2023-07-08T02:48:58;25.10;50.80
18412;DHT22;27097;51.738;19.472;2023-07-08T02:51:25;25.10;50.80
18412;DHT22;27097;51.738;19.472;2023-07-08T02:53:52;25.00;50.90
18412;DHT22;27097;51.738;19.472;2023-07-08T02:56:19;25.00;50.70
18412;DHT22;27097;51.738;19.472;2023-07-08T02:58:46;25.00;50.90
18412;DHT22;27097;51.738;19.472;2023-07-08T03:01:15;25.00;50.70
18412;DHT22;27097;51.738;19.472;2023-07-08T03:03:43;25.00;50.60
18412;DHT22;27097;51.738;19.472;2023-07-08T03:06:10;25.10;50.70
18412;DHT22;27097;51.738;19.472;2023-07-08T03:08:37;25.10;50.70
18412;DHT22;27097;51.738;19.472;2023-07-08T03:11:05;25.10;50.50
18412;DHT22;27097;51.738;19.472;2023-07-08T03:13:33;25.10;50.70
18412;DHT22;27097;51.738;19.472;2023-07-08T03:16:01;25.10;50.70
18412;DHT22;27097;51.738;19.472;2023-07-08T03:18:39;25.10;50.60
18412;DHT22;27097;51.738;19.472;2023-07-08T03:21:12;25.10;50.50
18412;DHT22;27097;51.738;19.472;2023-07-08T03:23:40;25.10;50.70
18412;DHT22;27097;51.738;19.472;2023-07-08T03:26:13;25.10;50.70
18412;DHT22;27097;51.738;19.472;2023-07-08T03:28:41;25.10;50.70
18412;DHT22;27097;51.738;19.472;2023-07-08T03:31:09;25.10;50.60
18412;DHT22;27097;51.738;19.472;2023-07-08T03:33:36;25.10;50.70
18412;DHT22;27097;51.738;19.472;2023-07-08T03:36:11;25.10;50.60
18412;DHT22;27097;51.738;19.472;2023-07-08T03:38:38;25.10;50.50
18412;DHT22;27097;51.738;19.472;2023-07-08T03:41:05;25.20;50.40
18412;DHT22;27097;51.738;19.472;2023-07-08T03:43:32;25.20;50.30
18412;DHT22;27097;51.738;19.472;2023-07-08T03:45:59;25.20;50.50
18412;DHT22;27097;51.738;19.472;2023-07-08T03:48:26;25.20;50.40
18412;DHT22;27097;51.738;19.472;2023-07-08T03:50:53;25.20;50.30
18412;DHT22;27097;51.738;19.472;2023-07-08T03:53:21;25.20;50.30
18412;DHT22;27097;51.738;19.472;2023-07-08T03:55:48;25.20;50.30
18412;DHT22;27097;51.738;19.472;2023-07-08T03:58:14;25.20;50.10
18412;DHT22;27097;51.738;19.472;2023-07-08T04:00:41;25.20;50.10
18412;DHT22;27097;51.738;19.472;2023-07-08T04:03:10;25.30;50.00
18412;DHT22;27097;51.738;19.472;2023-07-08T04:05:38;25.30;50.00
18412;DHT22;27097;51.738;19.472;2023-07-08T04:08:05;25.30;50.20
18412;DHT22;27097;51.738;19.472;2023-07-08T04:10:33;25.30;49.90
18412;DHT22;27097;51.738;19.472;2023-07-08T04:13:00;25.30;49.80
18412;DHT22;27097;51.738;19.472;2023-07-08T04:15:27;25.30;50.00
18412;DHT22;27097;51.738;19.472;2023-07-08T04:17:54;25.30;50.00
18412;DHT22;27097;51.738;19.472;2023-07-08T04:20:23;25.30;49.90
18412;DHT22;27097;51.738;19.472;2023-07-08T04:22:49;25.30;49.20
18412;DHT22;27097;51.738;19.472;2023-07-08T04:25:18;25.30;49.80
18412;DHT22;27097;51.738;19.472;2023-07-08T04:27:46;25.30;49.90
18412;DHT22;27097;51.738;19.472;2023-07-08T04:30:19;25.30;49.90
18412;DHT22;27097;51.738;19.472;2023-07-08T04:32:47;25.40;49.90
18412;DHT22;27097;51.738;19.472;2023-07-08T04:35:14;25.30;50.50
18412;DHT22;27097;51.738;19.472;2023-07-08T04:37:41;25.40;49.30
18412;DHT22;27097;51.738;19.472;2023-07-08T04:40:17;25.40;49.50
18412;DHT22;27097;51.738;19.472;2023-07-08T04:42:46;25.40;49.40
18412;DHT22;27097;51.738;19.472;2023-07-08T04:45:15;25.40;49.50
18412;DHT22;27097;51.738;19.472;2023-07-08T04:47:43;25.40;50.20
18412;DHT22;27097;51.738;19.472;2023-07-08T04:50:12;25.40;49.00
18412;DHT22;27097;51.738;19.472;2023-07-08T04:52:39;25.40;49.30
18412;DHT22;27097;51.738;19.472;2023-07-08T04:55:07;25.40;49.30
18412;DHT22;27097;51.738;19.472;2023-07-08T04:57:35;25.50;49.10
18412;DHT22;27097;51.738;19.472;2023-07-08T05:00:05;25.50;49.30
18412;DHT22;27097;51.738;19.472;2023-07-08T05:02:33;25.50;49.40
18412;DHT22;27097;51.738;19.472;2023-07-08T05:05:01;25.50;48.80
18412;DHT22;27097;51.738;19.472;2023-07-08T05:07:28;25.60;48.80
18412;DHT22;27097;51.738;19.472;2023-07-08T05:09:55;25.60;48.60
18412;DHT22;27097;51.738;19.472;2023-07-08T05:12:21;25.60;48.40
18412;DHT22;27097;51.738;19.472;2023-07-08T05:14:48;25.60;48.20
18412;DHT22;27097;51.738;19.472;2023-07-08T05:17:16;25.70;48.30
18412;DHT22;27097;51.738;19.472;2023-07-08T05:19:43;25.70;48.30
18412;DHT22;27097;51.738;19.472;2023-07-08T05:22:11;25.70;47.80
18412;DHT22;27097;51.738;19.472;2023-07-08T05:24:38;25.70;48.80
18412;DHT22;27097;51.738;19.472;2023-07-08T05:27:05;25.70;48.80
18412;DHT22;27097;51.738;19.472;2023-07-08T05:29:32;25.70;48.20
18412;DHT22;27097;51.738;19.472;2023-07-08T05:31:58;25.70;47.90
18412;DHT22;27097;51.738;19.472;2023-07-08T05:34:27;25.80;47.70
18412;DHT22;27097;51.738;19.472;2023-07-08T05:36:54;25.80;47.70
18412;DHT22;27097;51.738;19.472;2023-07-08T05:39:21;25.80;47.10
18412;DHT22;27097;51.738;19.472;2023-07-08T05:41:48;25.90;47.20
18412;DHT22;27097;51.738;19.472;2023-07-08T05:44:15;25.90;47.60
18412;DHT22;27097;51.738;19.472;2023-07-08T05:46:42;25.90;47.10
18412;DHT22;27097;51.738;19.472;2023-07-08T05:49:08;25.90;48.40
18412;DHT22;27097;51.738;19.472;2023-07-08T05:51:37;25.90;48.10
18412;DHT22;27097;51.738;19.472;2023-07-08T05:54:04;25.90;47.90
18412;DHT22;27097;51.738;19.472;2023-07-08T05:56:30;25.90;48.60
18412;DHT22;27097;51.738;19.472;2023-07-08T05:58:57;25.90;48.30
18412;DHT22;27097;51.738;19.472;2023-07-08T06:01:24;25.90;48.50
18412;DHT22;27097;51.738;19.472;2023-07-08T06:03:51;25.90;48.50
18412;DHT22;27097;51.738;19.472;2023-07-08T06:06:18;25.90;48.60
18412;DHT22;27097;51.738;19.472;2023-07-08T06:08:46;25.90;48.30
18412;DHT22;27097;51.738;19.472;2023-07-08T06:11:13;25.90;47.90
18412;DHT22;27097;51.738;19.472;2023-07-08T06:13:40;25.90;47.70
18412;DHT22;27097;51.738;19.472;2023-07-08T06:16:07;25.90;47.50
18412;DHT22;27097;51.738;19.472;2023-07-08T06:18:34;25.90;47.20
18412;DHT22;27097;51.738;19.472;2023-07-08T06:21:01;26.00;46.90
18412;DHT22;27097;51.738;19.472;2023-07-08T06:23:28;26.00;47.30
18412;DHT22;27097;51.738;19.472;2023-07-08T06:25:56;26.00;46.80
18412;DHT22;27097;51.738;19.472;2023-07-08T06:28:23;26.00;46.70
18412;DHT22;27097;51.738;19.472;2023-07-08T06:30:50;26.00;46.70
18412;DHT22;27097;51.738;19.472;2023-07-08T06:33:17;26.00;46.50
18412;DHT22;27097;51.738;19.472;2023-07-08T06:35:44;26.00;46.30
18412;DHT22;27097;51.738;19.472;2023-07-08T06:38:12;26.10;45.90
18412;DHT22;27097;51.738;19.472;2023-07-08T06:40:39;26.10;46.00
18412;DHT22;27097;51.738;19.472;2023-07-08T06:43:07;26.10;45.90
18412;DHT22;27097;51.738;19.472;2023-07-08T06:45:34;26.10;46.30
18412;DHT22;27097;51.738;19.472;2023-07-08T06:48:00;26.10;46.20
18412;DHT22;27097;51.738;19.472;2023-07-08T06:50:27;26.10;46.30
18412;DHT22;27097;51.738;19.472;2023-07-08T06:52:54;26.10;46.30
18412;DHT22;27097;51.738;19.472;2023-07-08T06:55:21;26.10;45.60
18412;DHT22;27097;51.738;19.472;2023-07-08T06:57:48;26.10;45.80
18412;DHT22;27097;51.738;19.472;2023-07-08T07:00:16;26.10;45.50
18412;DHT22;27097;51.738;19.472;2023-07-08T07:02:43;26.10;45.40
18412;DHT22;27097;51.738;19.472;2023-07-08T07:05:10;26.10;44.90
18412;DHT22;27097;51.738;19.472;2023-07-08T07:07:37;26.10;45.10
18412;DHT22;27097;51.738;19.472;2023-07-08T07:10:04;26.20;44.90
18412;DHT22;27097;51.738;19.472;2023-07-08T07:12:33;26.20;44.90
18412;DHT22;27097;51.738;19.472;2023-07-08T07:15:00;26.20;44.90
18412;DHT22;27097;51.738;19.472;2023-07-08T07:17:29;26.20;44.90
18412;DHT22;27097;51.738;19.472;2023-07-08T07:19:57;26.20;45.30
18412;DHT22;27097;51.738;19.472;2023-07-08T07:22:24;26.20;45.10
18412;DHT22;27097;51.738;19.472;2023-07-08T07:24:51;26.20;45.20
18412;DHT22;27097;51.738;19.472;2023-07-08T07:27:18;26.20;45.00
18412;DHT22;27097;51.738;19.472;2023-07-08T07:29:46;26.20;45.00
18412;DHT22;27097;51.738;19.472;2023-07-08T07:32:14;26.20;44.80
18412;DHT22;27097;51.738;19.472;2023-07-08T07:34:45;26.20;44.60
18412;DHT22;27097;51.738;19.472;2023-07-08T07:37:13;26.20;44.90
18412;DHT22;27097;51.738;19.472;2023-07-08T07:39:41;26.20;45.00
18412;DHT22;27097;51.738;19.472;2023-07-08T07:42:09;26.20;45.20
18412;DHT22;27097;51.738;19.472;2023-07-08T07:44:36;26.20;45.60
18412;DHT22;27097;51.738;19.472;2023-07-08T07:47:05;26.20;45.70
18412;DHT22;27097;51.738;19.472;2023-07-08T07:49:33;26.20;45.60
18412;DHT22;27097;51.738;19.472;2023-07-08T07:52:01;26.20;45.60
18412;DHT22;27097;51.738;19.472;2023-07-08T07:54:28;26.30;46.00
18412;DHT22;27097;51.738;19.472;2023-07-08T07:56:55;26.30;44.90
18412;DHT22;27097;51.738;19.472;2023-07-08T07:59:22;26.30;45.30
18412;DHT22;27097;51.738;19.472;2023-07-08T08:01:49;26.30;45.00
18412;DHT22;27097;51.738;19.472;2023-07-08T08:04:16;26.30;45.10
18412;DHT22;27097;51.738;19.472;2023-07-08T08:06:43;26.30;44.50
18412;DHT22;27097;51.738;19.472;2023-07-08T08:09:11;26.30;45.00
18412;DHT22;27097;51.738;19.472;2023-07-08T08:11:38;26.30;44.80
18412;DHT22;27097;51.738;19.472;2023-07-08T08:14:05;26.40;45.00
18412;DHT22;27097;51.738;19.472;2023-07-08T08:16:31;26.40;45.30
18412;DHT22;27097;51.738;19.472;2023-07-08T08:18:58;26.40;45.10
18412;DHT22;27097;51.738;19.472;2023-07-08T08:21:25;26.40;44.90
18412;DHT22;27097;51.738;19.472;2023-07-08T08:23:52;26.50;45.10
18412;DHT22;27097;51.738;19.472;2023-07-08T08:26:20;26.50;45.00
18412;DHT22;27097;51.738;19.472;2023-07-08T08:28:47;26.50;45.40
18412;DHT22;27097;51.738;19.472;2023-07-08T08:31:14;26.50;45.60
18412;DHT22;27097;51.738;19.472;2023-07-08T08:33:40;26.50;46.10
18412;DHT22;27097;51.738;19.472;2023-07-08T08:36:07;26.50;45.10
18412;DHT22;27097;51.738;19.472;2023-07-08T08:38:34;26.50;45.20
18412;DHT22;27097;51.738;19.472;2023-07-08T08:41:03;26.60;45.10
18412;DHT22;27097;51.738;19.472;2023-07-08T08:43:38;26.60;45.20
18412;DHT22;27097;51.738;19.472;2023-07-08T08:46:09;26.60;45.20
18412;DHT22;27097;51.738;19.472;2023-07-08T08:48:43;26.60;45.90
18412;DHT22;27097;51.738;19.472;2023-07-08T08:51:14;26.70;45.50
18412;DHT22;27097;51.738;19.472;2023-07-08T08:53:42;26.70;45.60
18412;DHT22;27097;51.738;19.472;2023-07-08T08:56:14;26.70;45.70
18412;DHT22;27097;51.738;19.472;2023-07-08T08:58:44;26.70;45.80
18412;DHT22;27097;51.738;19.472;2023-07-08T09:01:16;26.80;45.90
18412;DHT22;27097;51.738;19.472;2023-07-08T09:03:49;26.80;46.50
18412;DHT22;27097;51.738;19.472;2023-07-08T09:06:19;26.80;45.80
18412;DHT22;27097;51.738;19.472;2023-07-08T09:08:48;26.80;45.80
18412;DHT22;27097;51.738;19.472;2023-07-08T09:11:23;26.90;45.70
18412;DHT22;27097;51.738;19.472;2023-07-08T09:13:53;26.90;45.60
18412;DHT22;27097;51.738;19.472;2023-07-08T09:16:26;26.90;45.60
18412;DHT22;27097;51.738;19.472;2023-07-08T09:19:00;26.90;45.60
18412;DHT22;27097;51.738;19.472;2023-07-08T09:21:36;26.90;45.50
18412;DHT22;27097;51.738;19.472;2023-07-08T09:24:09;26.90;45.40
18412;DHT22;27097;51.738;19.472;2023-07-08T09:26:37;27.00;45.40
18412;DHT22;27097;51.738;19.472;2023-07-08T09:29:09;27.00;45.40
18412;DHT22;27097;51.738;19.472;2023-07-08T09:31:38;27.00;45.30
18412;DHT22;27097;51.738;19.472;2023-07-08T09:34:11;27.00;45.10
18412;DHT22;27097;51.738;19.472;2023-07-08T09:36:42;27.10;45.10
18412;DHT22;27097;51.738;19.472;2023-07-08T09:39:11;27.10;44.90
18412;DHT22;27097;51.738;19.472;2023-07-08T09:41:39;27.10;45.00
18412;DHT22;27097;51.738;19.472;2023-07-08T09:44:23;27.10;44.90
18412;DHT22;27097;51.738;19.472;2023-07-08T09:46:52;27.20;44.90
18412;DHT22;27097;51.738;19.472;2023-07-08T09:49:22;27.20;44.80
18412;DHT22;27097;51.738;19.472;2023-07-08T09:51:50;27.20;44.80
18412;DHT22;27097;51.738;19.472;2023-07-08T09:54:19;27.30;44.80
18412;DHT22;27097;51.738;19.472;2023-07-08T09:56:55;27.40;44.80
18412;DHT22;27097;51.738;19.472;2023-07-08T09:59:29;27.40;44.70
18412;DHT22;27097;51.738;19.472;2023-07-08T10:02:03;27.40;44.70
18412;DHT22;27097;51.738;19.472;2023-07-08T10:04:42;27.50;44.50
18412;DHT22;27097;51.738;19.472;2023-07-08T10:07:16;27.60;44.30
18412;DHT22;27097;51.738;19.472;2023-07-08T10:09:43;27.70;44.30
18412;DHT22;27097;51.738;19.472;2023-07-08T10:12:14;27.70;44.10
18412;DHT22;27097;51.738;19.472;2023-07-08T10:14:48;27.90;44.20
18412;DHT22;27097;51.738;19.472;2023-07-08T10:17:18;27.90;44.20
18412;DHT22;27097;51.738;19.472;2023-07-08T10:19:46;27.90;44.50
18412;DHT22;27097;51.738;19.472;2023-07-08T10:22:29;27.90;44.60
18412;DHT22;27097;51.738;19.472;2023-07-08T10:25:08;27.90;44.80
18412;DHT22;27097;51.738;19.472;2023-07-08T10:27:44;27.80;44.80
18412;DHT22;27097;51.738;19.472;2023-07-08T10:30:20;27.80;44.70
18412;DHT22;27097;51.738;19.472;2023-07-08T10:33:05;27.80;44.80
18412;DHT22;27097;51.738;19.472;2023-07-08T10:35:42;27.80;44.90
18412;DHT22;27097;51.738;19.472;2023-07-08T10:38:32;27.80;45.00
18412;DHT22;27097;51.738;19.472;2023-07-08T10:41:04;27.80;45.00
18412;DHT22;27097;51.738;19.472;2023-07-08T10:43:46;27.80;45.00
18412;DHT22;27097;51.738;19.472;2023-07-08T10:46:24;27.80;45.10
18412;DHT22;27097;51.738;19.472;2023-07-08T10:49:13;27.90;45.10
18412;DHT22;27097;51.738;19.472;2023-07-08T10:51:55;27.90;45.30
18412;DHT22;27097;51.738;19.472;2023-07-08T10:54:34;28.00;45.00
18412;DHT22;27097;51.738;19.472;2023-07-08T10:57:15;28.10;44.80
18412;DHT22;27097;51.738;19.472;2023-07-08T10:59:53;28.20;44.80
18412;DHT22;27097;51.738;19.472;2023-07-08T11:03:06;28.30;44.70
18412;DHT22;27097;51.738;19.472;2023-07-08T11:05:41;28.30;44.50
18412;DHT22;27097;51.738;19.472;2023-07-08T11:08:12;28.40;44.10
18412;DHT22;27097;51.738;19.472;2023-07-08T11:10:49;28.40;44.00
18412;DHT22;27097;51.738;19.472;2023-07-08T11:13:38;28.50;43.90
18412;DHT22;27097;51.738;19.472;2023-07-08T11:16:14;28.50;44.00
18412;DHT22;27097;51.738;19.472;2023-07-08T11:18:48;28.50;43.70
18412;DHT22;27097;51.738;19.472;2023-07-08T11:21:22;28.50;43.40
18412;DHT22;27097;51.738;19.472;2023-07-08T11:23:55;28.50;43.40
18412;DHT22;27097;51.738;19.472;2023-07-08T11:26:28;28.50;43.50
18412;DHT22;27097;51.738;19.472;2023-07-08T11:28:58;28.50;43.40
18412;DHT22;27097;51.738;19.472;2023-07-08T11:31:27;28.50;43.50
18412;DHT22;27097;51.738;19.472;2023-07-08T11:33:58;28.40;43.20
18412;DHT22;27097;51.738;19.472;2023-07-08T11:36:28;28.40;43.10
18412;DHT22;27097;51.738;19.472;2023-07-08T11:38:55;28.30;43.10
18412;DHT22;27097;51.738;19.472;2023-07-08T11:41:27;28.30;43.30
18412;DHT22;27097;51.738;19.472;2023-07-08T11:43:59;28.30;43.50
18412;DHT22;27097;51.738;19.472;2023-07-08T11:46:28;28.20;43.60
18412;DHT22;27097;51.738;19.472;2023-07-08T11:49:02;28.10;43.40
18412;DHT22;27097;51.738;19.472;2023-07-08T11:51:31;28.00;43.50
18412;DHT22;27097;51.738;19.472;2023-07-08T11:54:02;27.90;43.50
18412;DHT22;27097;51.738;19.472;2023-07-08T11:56:48;27.90;43.80
18412;DHT22;27097;51.738;19.472;2023-07-08T11:59:17;27.80;43.70
18412;DHT22;27097;51.738;19.472;2023-07-08T12:01:51;27.80;44.00
18412;DHT22;27097;51.738;19.472;2023-07-08T12:04:29;27.70;44.00
18412;DHT22;27097;51.738;19.472;2023-07-08T12:07:10;27.70;44.00
18412;DHT22;27097;51.738;19.472;2023-07-08T12:09:43;27.60;44.70
18412;DHT22;27097;51.738;19.472;2023-07-08T12:12:16;27.60;44.30
18412;DHT22;27097;51.738;19.472;2023-07-08T12:14:44;27.60;44.40
18412;DHT22;27097;51.738;19.472;2023-07-08T12:17:12;27.50;44.40
18412;DHT22;27097;51.738;19.472;2023-07-08T12:19:42;27.50;44.40
18412;DHT22;27097;51.738;19.472;2023-07-08T12:22:10;27.50;44.40
18412;DHT22;27097;51.738;19.472;2023-07-08T12:24:38;27.50;44.30
18412;DHT22;27097;51.738;19.472;2023-07-08T12:27:05;27.50;44.10
18412;DHT22;27097;51.738;19.472;2023-07-08T12:29:32;27.50;43.80
18412;DHT22;27097;51.738;19.472;2023-07-08T12:31:59;27.50;43.90
18412;DHT22;27097;51.738;19.472;2023-07-08T12:34:26;27.50;43.80
18412;DHT22;27097;51.738;19.472;2023-07-08T12:36:55;27.50;43.70
18412;DHT22;27097;51.738;19.472;2023-07-08T12:39:22;27.50;43.80
18412;DHT22;27097;51.738;19.472;2023-07-08T12:41:48;27.40;43.80
18412;DHT22;27097;51.738;19.472;2023-07-08T12:44:19;27.40;44.60
18412;DHT22;27097;51.738;19.472;2023-07-08T12:46:47;27.40;44.80
18412;DHT22;27097;51.738;19.472;2023-07-08T12:49:15;27.40;44.30
18412;DHT22;27097;51.738;19.472;2023-07-08T12:51:43;27.40;44.30
18412;DHT22;27097;51.738;19.472;2023-07-08T12:54:15;27.40;44.50
18412;DHT22;27097;51.738;19.472;2023-07-08T12:56:49;27.40;45.00
18412;DHT22;27097;51.738;19.472;2023-07-08T12:59:19;27.40;44.40
18412;DHT22;27097;51.738;19.472;2023-07-08T13:01:49;27.40;44.20
18412;DHT22;27097;51.738;19.472;2023-07-08T13:04:17;27.30;44.00
18412;DHT22;27097;51.738;19.472;2023-07-08T13:06:46;27.30;43.70
18412;DHT22;27097;51.738;19.472;2023-07-08T13:09:27;27.30;43.80
18412;DHT22;27097;51.738;19.472;2023-07-08T13:11:57;27.30;43.80
18412;DHT22;27097;51.738;19.472;2023-07-08T13:14:24;27.30;43.80
18412;DHT22;27097;51.738;19.472;2023-07-08T13:16:52;27.30;43.60
18412;DHT22;27097;51.738;19.472;2023-07-08T13:19:19;27.30;43.70
18412;DHT22;27097;51.738;19.472;2023-07-08T13:21:47;27.30;43.60
18412;DHT22;27097;51.738;19.472;2023-07-08T13:24:14;27.30;43.30
18412;DHT22;27097;51.738;19.472;2023-07-08T13:26:51;27.30;43.10
18412;DHT22;27097;51.738;19.472;2023-07-08T13:29:19;27.30;43.00
18412;DHT22;27097;51.738;19.472;2023-07-08T13:31:55;27.30;43.10
18412;DHT22;27097;51.738;19.472;2023-07-08T13:34:24;27.20;43.40
18412;DHT22;27097;51.738;19.472;2023-07-08T13:36:51;27.20;43.50
18412;DHT22;27097;51.738;19.472;2023-07-08T13:39:27;27.20;43.60
18412;DHT22;27097;51.738;19.472;2023-07-08T13:41:56;27.20;43.40
18412;DHT22;27097;51.738;19.472;2023-07-08T13:44:23;27.20;44.10
18412;DHT22;27097;51.738;19.472;2023-07-08T13:46:52;27.20;43.60
18412;DHT22;27097;51.738;19.472;2023-07-08T13:49:23;27.20;43.40
18412;DHT22;27097;51.738;19.472;2023-07-08T13:51:51;27.20;43.00
18412;DHT22;27097;51.738;19.472;2023-07-08T13:54:21;27.20;42.90
18412;DHT22;27097;51.738;19.472;2023-07-08T13:56:49;27.20;42.70
18412;DHT22;27097;51.738;19.472;2023-07-08T13:59:21;27.20;42.80
18412;DHT22;27097;51.738;19.472;2023-07-08T14:01:51;27.20;43.00
18412;DHT22;27097;51.738;19.472;2023-07-08T14:04:21;27.20;43.10
18412;DHT22;27097;51.738;19.472;2023-07-08T14:06:49;27.20;43.20
18412;DHT22;27097;51.738;19.472;2023-07-08T14:09:18;27.30;43.90
18412;DHT22;27097;51.738;19.472;2023-07-08T14:11:46;27.30;44.50
18412;DHT22;27097;51.738;19.472;2023-07-08T14:14:14;27.30;45.20
18412;DHT22;27097;51.738;19.472;2023-07-08T14:16:44;27.30;46.80
18412;DHT22;27097;51.738;19.472;2023-07-08T14:19:15;27.30;46.00
18412;DHT22;27097;51.738;19.472;2023-07-08T14:21:43;27.30;45.80
18412;DHT22;27097;51.738;19.472;2023-07-08T14:24:12;27.30;45.80
18412;DHT22;27097;51.738;19.472;2023-07-08T14:26:41;27.20;46.50
18412;DHT22;27097;51.738;19.472;2023-07-08T14:32:32;27.30;46.40
18412;DHT22;27097;51.738;19.472;2023-07-08T14:35:16;27.30;44.20
18412;DHT22;27097;51.738;19.472;2023-07-08T14:37:44;27.20;45.50
18412;DHT22;27097;51.738;19.472;2023-07-08T14:40:21;27.20;44.50
18412;DHT22;27097;51.738;19.472;2023-07-08T14:42:58;27.20;45.10
18412;DHT22;27097;51.738;19.472;2023-07-08T14:45:27;27.20;44.40
18412;DHT22;27097;51.738;19.472;2023-07-08T14:47:56;27.20;44.30
18412;DHT22;27097;51.738;19.472;2023-07-08T14:50:23;27.20;44.20
18412;DHT22;27097;51.738;19.472;2023-07-08T14:52:55;27.20;44.40
18412;DHT22;27097;51.738;19.472;2023-07-08T14:55:22;27.20;44.50
18412;DHT22;27097;51.738;19.472;2023-07-08T14:57:49;27.20;44.60
18412;DHT22;27097;51.738;19.472;2023-07-08T15:00:17;27.20;44.70
18412;DHT22;27097;51.738;19.472;2023-07-08T15:02:46;27.20;44.80
18412;DHT22;27097;51.738;19.472;2023-07-08T15:05:17;27.20;44.80
18412;DHT22;27097;51.738;19.472;2023-07-08T15:07:50;27.20;44.50
18412;DHT22;27097;51.738;19.472;2023-07-08T15:10:18;27.20;45.10
18412;DHT22;27097;51.738;19.472;2023-07-08T15:12:45;27.20;44.50
18412;DHT22;27097;51.738;19.472;2023-07-08T15:15:17;27.20;44.70
18412;DHT22;27097;51.738;19.472;2023-07-08T15:17:44;27.20;44.90
18412;DHT22;27097;51.738;19.472;2023-07-08T15:20:13;27.20;45.30
18412;DHT22;27097;51.738;19.472;2023-07-08T15:22:42;27.20;45.30
18412;DHT22;27097;51.738;19.472;2023-07-08T15:25:11;27.20;44.80
18412;DHT22;27097;51.738;19.472;2023-07-08T15:27:42;27.20;45.00
18412;DHT22;27097;51.738;19.472;2023-07-08T15:30:19;27.20;44.50
18412;DHT22;27097;51.738;19.472;2023-07-08T15:32:47;27.20;44.70
18412;DHT22;27097;51.738;19.472;2023-07-08T15:35:16;27.20;44.50